Time;durP1;ratioP1;P1;durP2;ratioP2;P2;SDS_P1;SDS_P2;PMS_P1;PMS_P2;Temp;Humidity;BMP_temperature;BMP_pressure;BME280_temperature;BME280_humidity;BME280_pressure;Samples;Min_cycle;Max_cycle;Signal;HPM_P1;HPM_P2
2021/08/30 00:00:08;;;;;;;13.38;10.70;;;24.20;82.30;;;;;;5014019;28;20026;-63
2021/08/30 00:02:34;;;;;;;12.05;9.73;;;24.20;82.50;;;;;;5020290;28;20036;-63
2021/08/30 00:05:01;;;;;;;13.82;10.07;;;24.20;82.70;;;;;;5033660;28;20033;-63
2021/08/30 00:07:26;;;;;;;13.32;9.43;;;24.10;82.70;;;;;;5022425;28;20017;-63
2021/08/30 00:09:52;;;;;;;12.38;9.68;;;24.10;82.80;;;;;;5013917;28;20022;-63
2021/08/30 00:12:18;;;;;;;13.02;9.98;;;24.10;83.00;;;;;;5013569;28;20026;-64
2021/08/30 00:14:43;;;;;;;13.02;9.70;;;24.10;83.20;;;;;;5014044;28;20032;-64
2021/08/30 00:17:09;;;;;;;13.98;9.55;;;24.10;83.20;;;;;;5013303;28;20330;-63
2021/08/30 00:19:35;;;;;;;12.98;10.05;;;24.00;83.30;;;;;;5013654;28;20033;-64
2021/08/30 00:22:02;;;;;;;11.93;9.73;;;24.00;83.20;;;;;;5029054;28;20120;-63
2021/08/30 00:24:28;;;;;;;12.93;9.75;;;24.00;83.40;;;;;;5033604;28;20025;-63
2021/08/30 00:26:54;;;;;;;13.23;10.50;;;24.00;83.40;;;;;;5033285;28;20377;-64
2021/08/30 00:29:25;;;;;;;12.32;9.65;;;24.00;83.80;;;;;;5014379;28;20037;-63
2021/08/30 00:31:55;;;;;;;12.20;10.10;;;24.00;83.50;;;;;;5013074;28;20069;-63
2021/08/30 00:34:21;;;;;;;11.77;9.25;;;24.00;83.30;;;;;;5013522;28;20030;-63
2021/08/30 00:36:47;;;;;;;12.88;9.20;;;24.00;83.40;;;;;;5013552;28;20041;-63
2021/08/30 00:39:16;;;;;;;16.85;10.18;;;23.90;84.00;;;;;;5013402;28;20026;-63
2021/08/30 00:41:42;;;;;;;12.55;9.32;;;23.90;84.10;;;;;;5013578;28;20033;-63
2021/08/30 00:44:07;;;;;;;13.57;9.57;;;23.90;83.40;;;;;;5012557;28;20033;-63
2021/08/30 00:46:33;;;;;;;11.75;9.75;;;23.90;83.40;;;;;;5013670;28;20030;-63
2021/08/30 00:48:59;;;;;;;14.93;10.60;;;23.90;83.40;;;;;;5014165;28;20029;-63
2021/08/30 00:51:24;;;;;;;12.20;9.77;;;23.90;83.30;;;;;;5013315;28;20029;-63
2021/08/30 00:53:51;;;;;;;13.75;9.77;;;23.90;83.50;;;;;;5012530;28;20081;-63
2021/08/30 00:56:17;;;;;;;12.52;9.90;;;23.90;83.60;;;;;;5032941;28;20024;-63
2021/08/30 00:58:44;;;;;;;12.32;9.32;;;23.90;83.50;;;;;;5031704;28;20049;-63
2021/08/30 01:01:11;;;;;;;13.93;10.23;;;23.90;83.90;;;;;;5012728;28;20029;-63
2021/08/30 01:03:38;;;;;;;16.10;10.80;;;23.90;83.80;;;;;;5013084;28;20046;-63
2021/08/30 01:06:29;;;;;;;11.90;10.45;;;23.90;83.80;;;;;;5012849;28;20113;-63
2021/08/30 01:09:13;;;;;;;15.27;11.43;;;23.90;84.00;;;;;;5012988;28;20018;-63
2021/08/30 01:11:42;;;;;;;15.32;10.65;;;23.90;84.10;;;;;;5013269;28;20084;-63
2021/08/30 01:14:13;;;;;;;13.40;11.73;;;23.90;84.10;;;;;;5012667;28;20034;-63
2021/08/30 01:16:40;;;;;;;;;;;23.80;84.30;;;;;;5013755;28;20068;-63
2021/08/30 01:19:17;;;;;;;14.23;10.45;;;23.80;84.10;;;;;;5032641;28;20350;-63
2021/08/30 01:21:46;;;;;;;14.23;10.10;;;23.80;84.20;;;;;;5032467;28;20026;-63
2021/08/30 01:24:18;;;;;;;14.63;10.80;;;23.80;84.30;;;;;;5032566;28;20528;-63
2021/08/30 01:26:51;;;;;;;16.00;11.13;;;23.80;84.50;;;;;;5032507;28;20026;-63
2021/08/30 01:29:25;;;;;;;14.68;10.73;;;23.80;84.40;;;;;;5032655;28;20029;-63
2021/08/30 01:32:06;;;;;;;14.88;11.05;;;23.80;84.50;;;;;;5023075;28;20081;-63
2021/08/30 01:34:33;;;;;;;13.40;10.50;;;23.80;84.50;;;;;;5016783;28;20029;-63
2021/08/30 01:36:59;;;;;;;13.82;11.30;;;23.80;84.20;;;;;;5017024;28;20061;-63
2021/08/30 01:39:35;;;;;;;16.73;11.27;;;23.80;84.20;;;;;;5016484;28;20036;-63
2021/08/30 01:42:01;;;;;;;13.63;10.20;;;23.80;84.20;;;;;;5016541;28;20033;-63
2021/08/30 01:44:29;;;;;;;15.02;10.15;;;23.80;84.00;;;;;;5016828;28;20108;-63
2021/08/30 01:46:56;;;;;;;12.63;10.63;;;23.80;84.10;;;;;;5016638;28;20041;-63
2021/08/30 01:49:29;;;;;;;13.80;10.43;;;23.80;83.90;;;;;;5026824;28;20018;-63
2021/08/30 01:51:56;;;;;;;14.40;10.13;;;23.80;83.90;;;;;;5016355;28;20371;-63
2021/08/30 01:54:23;;;;;;;14.20;10.55;;;23.80;83.90;;;;;;5016307;28;20022;-63
2021/08/30 01:56:51;;;;;;;12.57;10.07;;;23.80;83.80;;;;;;5016583;28;20473;-63
2021/08/30 02:02:07;;;;;;;12.18;9.00;;;23.70;83.80;;;;;;5015925;28;20390;-63
2021/08/30 02:04:33;;;;;;;14.43;9.60;;;23.70;83.60;;;;;;5012557;28;20022;-63
2021/08/30 02:06:59;;;;;;;15.50;9.95;;;23.70;83.80;;;;;;5016052;28;20021;-63
2021/08/30 02:09:25;;;;;;;15.32;10.55;;;23.80;83.90;;;;;;5016233;28;20041;-63
2021/08/30 02:11:51;;;;;;;13.85;9.90;;;23.70;83.70;;;;;;5016249;28;20030;-63
2021/08/30 02:14:17;;;;;;;13.48;10.10;;;23.70;84.00;;;;;;5016260;28;20033;-63
2021/08/30 02:16:42;;;;;;;14.70;10.10;;;23.70;83.80;;;;;;5019397;28;20030;-63
2021/08/30 02:19:20;;;;;;;13.32;10.43;;;23.70;84.60;;;;;;5023476;28;20473;-63
2021/08/30 02:22:04;;;;;;;12.43;9.77;;;23.70;84.00;;;;;;5015695;28;20038;-63
2021/08/30 02:24:49;;;;;;;13.25;10.40;;;23.70;84.00;;;;;;5016156;28;20047;-63
2021/08/30 02:27:20;;;;;;;13.35;9.82;;;23.70;84.20;;;;;;5015811;28;20022;-63
2021/08/30 02:29:52;;;;;;;17.95;11.82;;;23.60;84.30;;;;;;5016086;28;20049;-63
2021/08/30 02:32:19;;;;;;;14.27;9.45;;;23.60;84.30;;;;;;5015616;28;20501;-64
2021/08/30 02:34:48;;;;;;;13.73;9.80;;;23.60;84.10;;;;;;5015043;28;20061;-63
2021/08/30 02:37:14;;;;;;;14.25;9.68;;;23.60;84.00;;;;;;5015827;28;20488;-63
2021/08/30 02:39:47;;;;;;;12.18;9.73;;;23.60;84.10;;;;;;5015582;28;20040;-63
2021/08/30 02:42:14;;;;;;;15.30;9.85;;;23.60;84.00;;;;;;5016042;28;20485;-64
2021/08/30 02:44:41;;;;;;;12.68;10.10;;;23.60;84.00;;;;;;5015577;28;20022;-64
2021/08/30 02:47:08;;;;;;;15.75;9.82;;;23.60;84.10;;;;;;5014567;28;20026;-63
2021/08/30 02:49:33;;;;;;;11.20;9.82;;;23.60;84.10;;;;;;5015068;28;20108;-63
2021/08/30 02:52:04;;;;;;;14.05;9.52;;;23.50;84.80;;;;;;5015406;28;20117;-63
2021/08/30 02:54:32;;;;;;;12.98;9.18;;;23.50;84.10;;;;;;5016446;28;20088;-63
2021/08/30 02:56:58;;;;;;;11.95;9.73;;;23.50;84.10;;;;;;5015244;28;20498;-63
2021/08/30 02:59:26;;;;;;;13.68;10.00;;;23.50;84.30;;;;;;5015370;28;20164;-63
2021/08/30 03:01:52;;;;;;;13.25;9.38;;;23.50;84.30;;;;;;5015229;28;20138;-63
2021/08/30 03:04:18;;;;;;;14.25;9.48;;;23.50;84.40;;;;;;5014961;28;20113;-63
2021/08/30 03:06:44;;;;;;;12.30;9.85;;;23.50;84.50;;;;;;5014049;28;20039;-63
2021/08/30 03:09:10;;;;;;;14.02;8.82;;;23.50;84.50;;;;;;5015144;28;20377;-64
2021/08/30 03:11:37;;;;;;;12.38;9.57;;;23.50;84.40;;;;;;5023113;28;20031;-63
2021/08/30 03:14:04;;;;;;;13.18;8.43;;;23.50;84.30;;;;;;5034583;28;20033;-63
2021/08/30 03:16:30;;;;;;;12.45;9.20;;;23.50;84.20;;;;;;5034576;28;20048;-63
2021/08/30 03:18:58;;;;;;;14.85;9.02;;;23.50;84.00;;;;;;5034884;28;20363;-63
2021/08/30 03:21:29;;;;;;;11.85;8.80;;;23.50;84.00;;;;;;5030101;28;20021;-63
2021/08/30 03:23:54;;;;;;;;;;;23.50;83.90;;;;;;5015114;28;20018;-63
2021/08/30 03:26:22;;;;;;;10.85;7.93;;;23.40;83.70;;;;;;5014633;28;19909;-63
2021/08/30 03:28:48;;;;;;;12.75;8.18;;;23.50;84.00;;;;;;5014949;28;20385;-63
2021/08/30 03:31:15;;;;;;;9.98;8.60;;;23.40;83.80;;;;;;5013884;28;20042;-63
2021/08/30 03:33:41;;;;;;;13.80;8.45;;;23.50;83.80;;;;;;5014563;28;20057;-63
2021/08/30 03:36:08;;;;;;;10.50;8.45;;;23.50;83.80;;;;;;5014442;28;20034;-64
2021/08/30 03:38:34;;;;;;;11.35;8.35;;;23.50;83.80;;;;;;5013876;28;20076;-63
2021/08/30 03:41:01;;;;;;;10.32;8.43;;;23.50;83.80;;;;;;5020214;28;20104;-64
2021/08/30 03:43:27;;;;;;;12.20;8.30;;;23.50;83.60;;;;;;5034040;28;20134;-64
2021/08/30 03:45:54;;;;;;;12.15;8.35;;;23.50;83.70;;;;;;5025241;28;20030;-63
2021/08/30 03:48:20;;;;;;;11.77;8.65;;;23.50;83.60;;;;;;5012209;28;20469;-63
2021/08/30 03:50:46;;;;;;;11.73;8.75;;;23.50;83.60;;;;;;5012286;28;20057;-63
2021/08/30 03:53:13;;;;;;;10.68;8.50;;;23.60;84.20;;;;;;5012830;28;20472;-63
2021/08/30 03:55:39;;;;;;;12.18;8.73;;;23.60;83.40;;;;;;4999350;28;20032;-63
2021/08/30 03:58:08;;;;;;;10.82;8.38;;;23.60;83.20;;;;;;4994725;28;20026;-63
2021/08/30 04:00:34;;;;;;;11.45;8.35;;;23.60;82.90;;;;;;4994636;28;20026;-63
2021/08/30 04:03:01;;;;;;;10.20;8.15;;;23.60;82.60;;;;;;4994386;28;20533;-63
2021/08/30 04:05:29;;;;;;;14.73;8.90;;;23.60;82.70;;;;;;4994351;28;20109;-63
2021/08/30 04:07:59;;;;;;;10.20;8.00;;;23.60;82.50;;;;;;4994369;28;20030;-64
2021/08/30 04:10:27;;;;;;;13.32;8.55;;;23.70;82.40;;;;;;5010781;28;20025;-63
2021/08/30 04:12:55;;;;;;;12.85;8.63;;;23.70;82.50;;;;;;5031781;28;20044;-64
2021/08/30 04:15:22;;;;;;;10.55;8.82;;;23.70;82.30;;;;;;5033684;28;20037;-63
2021/08/30 04:17:47;;;;;;;13.95;8.95;;;23.70;82.70;;;;;;5033507;28;20025;-64
2021/08/30 04:20:13;;;;;;;13.00;8.40;;;23.70;82.20;;;;;;5033532;28;20052;-63
2021/08/30 04:22:39;;;;;;;11.32;8.25;;;23.70;82.20;;;;;;5033355;28;20436;-64
2021/08/30 04:25:05;;;;;;;9.65;8.52;;;23.80;82.10;;;;;;5024456;28;20018;-64
2021/08/30 04:27:31;;;;;;;12.73;8.93;;;23.80;82.10;;;;;;5013722;28;20060;-63
2021/08/30 04:29:56;;;;;;;12.13;8.57;;;23.80;82.50;;;;;;5013472;28;20101;-63
2021/08/30 04:32:22;;;;;;;10.00;8.77;;;23.90;82.10;;;;;;5013340;28;20042;-63
2021/08/30 04:34:48;;;;;;;8.70;7.68;;;23.90;81.90;;;;;;5013712;28;20030;-63
2021/08/30 04:37:13;;;;;;;12.13;8.90;;;24.00;81.90;;;;;;5013387;28;20037;-63
2021/08/30 04:39:39;;;;;;;9.15;8.07;;;24.00;81.70;;;;;;5013409;28;20060;-63
2021/08/30 04:42:05;;;;;;;11.60;8.10;;;24.10;81.70;;;;;;5014700;28;20556;-63
2021/08/30 04:44:32;;;;;;;11.95;8.38;;;24.10;81.60;;;;;;5013629;28;20034;-63
2021/08/30 04:47:00;;;;;;;11.55;8.73;;;24.10;81.70;;;;;;5012597;28;20026;-64
2021/08/30 04:49:26;;;;;;;13.27;8.85;;;24.20;81.90;;;;;;5013324;28;20022;-63
2021/08/30 04:51:51;;;;;;;13.75;8.98;;;24.20;81.90;;;;;;5013083;28;20029;-64
2021/08/30 04:54:20;;;;;;;14.20;9.55;;;24.20;81.90;;;;;;5016441;28;20021;-63
2021/08/30 04:56:46;;;;;;;12.63;9.10;;;24.20;81.80;;;;;;5023470;28;20079;-64
2021/08/30 04:59:11;;;;;;;11.93;8.40;;;24.30;81.60;;;;;;5013099;28;20045;-63
2021/08/30 05:01:37;;;;;;;10.30;8.00;;;24.30;81.30;;;;;;5015514;28;20389;-64
2021/08/30 05:04:03;;;;;;;9.50;7.82;;;24.40;81.20;;;;;;5010663;28;20030;-63
2021/08/30 05:06:28;;;;;;;9.65;8.27;;;24.50;80.70;;;;;;5009174;28;20026;-63
2021/08/30 05:08:54;;;;;;;12.73;8.05;;;24.50;80.50;;;;;;5012740;28;20053;-63
2021/08/30 05:11:20;;;;;;;11.35;8.70;;;24.60;80.20;;;;;;5001941;28;20027;-63
2021/08/30 05:13:45;;;;;;;10.60;8.70;;;24.60;79.70;;;;;;5011196;28;20026;-63
2021/08/30 05:16:11;;;;;;;10.02;7.75;;;24.60;79.40;;;;;;4999740;28;20030;-63
2021/08/30 05:18:39;;;;;;;11.35;7.88;;;24.70;78.80;;;;;;5008648;28;20578;-64
2021/08/30 05:21:06;;;;;;;10.00;8.00;;;24.70;78.30;;;;;;5009778;28;20034;-63
2021/08/30 05:23:32;;;;;;;10.40;7.25;;;24.80;77.50;;;;;;5006811;28;20029;-63
2021/08/30 05:25:58;;;;;;;10.25;8.10;;;24.70;76.80;;;;;;5009658;28;20519;-63
2021/08/30 05:28:24;;;;;;;10.40;8.30;;;24.70;76.40;;;;;;5011399;28;20125;-63
2021/08/30 05:30:50;;;;;;;10.07;7.65;;;24.80;75.90;;;;;;5007653;28;20502;-63
2021/08/30 05:33:15;;;;;;;11.55;7.63;;;24.80;75.30;;;;;;5015910;28;20469;-63
2021/08/30 05:35:41;;;;;;;12.00;7.75;;;24.80;75.00;;;;;;5003781;28;20041;-62
2021/08/30 05:38:07;;;;;;;13.45;8.02;;;24.80;74.60;;;;;;4998690;28;20321;-63
2021/08/30 05:40:33;;;;;;;11.32;8.38;;;24.80;74.50;;;;;;4998616;28;20114;-63
2021/08/30 05:42:59;;;;;;;12.38;8.20;;;24.90;74.20;;;;;;5005949;28;20054;-62
2021/08/30 05:45:25;;;;;;;13.43;8.05;;;24.90;73.40;;;;;;5010834;28;20087;-63
2021/08/30 05:47:51;;;;;;;12.60;7.43;;;24.90;73.00;;;;;;5005622;28;20445;-63
2021/08/30 05:50:17;;;;;;;9.25;7.45;;;24.90;73.10;;;;;;5007890;28;20032;-62
2021/08/30 05:52:42;;;;;;;9.70;7.45;;;25.00;72.70;;;;;;5009356;28;20026;-62
2021/08/30 05:55:09;;;;;;;10.65;7.45;;;25.00;72.30;;;;;;5005889;28;20030;-63
2021/08/30 05:57:34;;;;;;;9.63;7.20;;;24.90;71.90;;;;;;4998534;28;20037;-62
2021/08/30 06:00:00;;;;;;;11.98;7.95;;;24.90;71.30;;;;;;5001761;28;20731;-62
2021/08/30 06:02:25;;;;;;;14.00;7.65;;;24.90;71.50;;;;;;5002726;28;20033;-62
2021/08/30 06:04:51;;;;;;;10.85;7.38;;;24.80;70.80;;;;;;5001873;28;20026;-62
2021/08/30 06:07:17;;;;;;;10.48;7.50;;;24.80;70.60;;;;;;5002721;28;20238;-63
2021/08/30 06:09:42;;;;;;;9.40;7.18;;;24.80;70.50;;;;;;5003392;28;20057;-62
2021/08/30 06:12:08;;;;;;;12.45;7.20;;;24.80;70.60;;;;;;5004519;28;20037;-63
2021/08/30 06:14:34;;;;;;;10.05;7.22;;;24.80;70.30;;;;;;5007023;28;20481;-62
2021/08/30 06:17:00;;;;;;;9.50;7.07;;;24.90;70.30;;;;;;5010540;28;20033;-63
2021/08/30 06:19:26;;;;;;;12.25;7.85;;;24.90;69.90;;;;;;5008291;28;20109;-63
2021/08/30 06:21:51;;;;;;;9.38;7.35;;;25.00;69.80;;;;;;5005140;28;20485;-63
2021/08/30 06:24:17;;;;;;;11.20;7.78;;;25.00;69.60;;;;;;5004950;28;20572;-63
2021/08/30 06:26:43;;;;;;;11.85;8.02;;;25.00;69.20;;;;;;5001188;28;20037;-63
2021/08/30 06:29:08;;;;;;;11.93;7.55;;;25.00;69.00;;;;;;4998991;28;20026;-63
2021/08/30 06:31:34;;;;;;;12.32;7.57;;;25.10;69.10;;;;;;4996023;28;20104;-62
2021/08/30 06:34:00;;;;;;;12.35;7.85;;;25.10;69.10;;;;;;5003207;28;20062;-62
2021/08/30 06:36:27;;;;;;;9.93;7.35;;;25.10;69.30;;;;;;4997790;28;20049;-63
2021/08/30 06:38:53;;;;;;;9.30;7.50;;;25.10;69.50;;;;;;4996037;28;20078;-63
2021/08/30 06:41:18;;;;;;;10.25;7.78;;;25.00;69.90;;;;;;4996819;28;20504;-62
2021/08/30 06:43:44;;;;;;;12.52;8.45;;;25.00;70.30;;;;;;4995630;28;20566;-62
2021/08/30 06:46:09;;;;;;;9.88;6.95;;;25.00;70.50;;;;;;4990199;28;20128;-63
2021/08/30 06:48:35;;;;;;;10.23;7.55;;;25.00;70.90;;;;;;4990613;28;20033;-62
2021/08/30 06:51:01;;;;;;;10.95;7.60;;;25.00;71.40;;;;;;4986950;28;20036;-63
2021/08/30 06:53:27;;;;;;;10.13;7.32;;;25.00;72.00;;;;;;4996116;28;20045;-62
2021/08/30 06:55:53;;;;;;;10.10;7.75;;;25.00;72.10;;;;;;5000739;28;20034;-61
2021/08/30 06:58:19;;;;;;;9.48;7.88;;;25.00;72.80;;;;;;4996700;28;20045;-57
2021/08/30 07:00:45;;;;;;;10.85;8.00;;;25.00;72.80;;;;;;4993066;28;20034;-60
2021/08/30 07:03:10;;;;;;;11.13;7.60;;;25.00;73.30;;;;;;4988489;28;22903;-59
2021/08/30 07:05:36;;;;;;;11.20;7.97;;;25.00;73.50;;;;;;4989109;28;20633;-57
2021/08/30 07:08:02;;;;;;;12.02;8.10;;;25.00;73.40;;;;;;4994129;28;20913;-56
2021/08/30 07:10:28;;;;;;;12.32;7.72;;;25.00;73.60;;;;;;4997308;28;20030;-61
2021/08/30 07:12:53;;;;;;;10.65;8.00;;;25.00;73.80;;;;;;5004481;28;20095;-59
2021/08/30 07:15:19;;;;;;;10.02;8.05;;;25.10;73.90;;;;;;4994201;28;20120;-58
2021/08/30 07:17:45;;;;;;;11.77;7.63;;;25.10;74.00;;;;;;4997709;28;20042;-63
2021/08/30 07:20:11;;;;;;;10.82;7.85;;;25.20;74.20;;;;;;4999632;28;20030;-63
2021/08/30 07:22:37;;;;;;;10.40;7.95;;;25.20;74.00;;;;;;4999271;28;20438;-64
2021/08/30 07:25:04;;;;;;;11.10;7.80;;;25.20;73.80;;;;;;5001455;28;21785;-64
2021/08/30 07:27:29;;;;;;;13.07;7.80;;;25.30;73.90;;;;;;4998795;28;20021;-64
2021/08/30 07:29:55;;;;;;;8.15;7.20;;;25.30;73.90;;;;;;5000594;28;20133;-63
2021/08/30 07:32:21;;;;;;;13.32;7.40;;;25.40;74.00;;;;;;4997987;28;20050;-62
2021/08/30 07:34:46;;;;;;;9.90;7.53;;;25.40;73.90;;;;;;4998347;28;20116;-64
2021/08/30 07:37:13;;;;;;;10.73;7.93;;;25.40;74.00;;;;;;4998320;28;20112;-64
2021/08/30 07:39:38;;;;;;;12.00;7.80;;;25.50;74.10;;;;;;5002352;28;20040;-63
2021/08/30 07:42:04;;;;;;;9.90;7.75;;;25.50;74.30;;;;;;4995805;28;20030;-64
2021/08/30 07:44:30;;;;;;;10.18;7.63;;;25.50;74.10;;;;;;5001822;28;20044;-64
2021/08/30 07:46:56;;;;;;;12.15;7.88;;;25.50;74.40;;;;;;4993770;28;20099;-65
2021/08/30 07:49:21;;;;;;;10.35;7.63;;;25.50;74.90;;;;;;4996376;28;20032;-64
2021/08/30 07:51:47;;;;;;;10.98;8.05;;;25.50;74.10;;;;;;4994973;28;20041;-64
2021/08/30 07:54:13;;;;;;;8.93;7.40;;;25.50;73.80;;;;;;4994581;28;20045;-63
2021/08/30 07:56:40;;;;;;;9.38;6.95;;;25.50;73.80;;;;;;4989759;28;20037;-63
2021/08/30 07:59:10;;;;;;;10.90;6.50;;;25.40;73.70;;;;;;4986428;28;20036;-64
2021/08/30 08:01:36;;;;;;;9.73;7.03;;;25.40;73.50;;;;;;4991426;28;20033;-64
2021/08/30 08:04:02;;;;;;;10.50;7.22;;;25.40;73.40;;;;;;4990139;28;21478;-63
2021/08/30 08:06:28;;;;;;;9.52;7.28;;;25.40;73.70;;;;;;4991215;28;20041;-64
2021/08/30 08:08:54;;;;;;;10.00;7.20;;;25.40;73.80;;;;;;4989031;28;20026;-65
2021/08/30 08:11:19;;;;;;;9.85;7.93;;;25.40;74.30;;;;;;4987365;28;20018;-64
2021/08/30 08:13:45;;;;;;;10.57;7.78;;;25.40;74.20;;;;;;4990120;28;20040;-64
2021/08/30 08:16:11;;;;;;;10.00;8.05;;;25.40;74.50;;;;;;4983062;28;21879;-64
2021/08/30 08:18:36;;;;;;;11.15;7.70;;;25.40;74.30;;;;;;4989620;28;20057;-63
2021/08/30 08:21:04;;;;;;;12.63;7.45;;;25.40;74.40;;;;;;4988481;28;20092;-63
2021/08/30 08:23:30;;;;;;;9.48;6.95;;;25.40;74.30;;;;;;4982209;28;20034;-61
2021/08/30 08:25:56;;;;;;;10.60;7.88;;;25.40;74.30;;;;;;4980566;28;20037;-64
2021/08/30 08:28:22;;;;;;;9.95;7.28;;;25.40;74.60;;;;;;4980983;28;20053;-64
2021/08/30 08:30:47;;;;;;;11.90;7.50;;;25.40;74.70;;;;;;4987937;28;20485;-64
2021/08/30 08:33:14;;;;;;;11.70;7.47;;;25.40;74.40;;;;;;4986454;28;20073;-64
2021/08/30 08:35:40;;;;;;;10.57;7.80;;;25.40;74.30;;;;;;4984005;28;20076;-64
2021/08/30 08:38:10;;;;;;;11.65;8.05;;;25.40;74.60;;;;;;4980852;28;20044;-63
2021/08/30 08:40:36;;;;;;;12.70;8.10;;;25.50;74.70;;;;;;4978885;28;20092;-64
2021/08/30 08:43:02;;;;;;;13.35;8.40;;;25.50;74.50;;;;;;4980814;28;20088;-63
2021/08/30 08:45:28;;;;;;;15.60;7.25;;;25.50;74.50;;;;;;4985604;28;21059;-63
2021/08/30 08:47:54;;;;;;;10.95;7.63;;;25.60;74.10;;;;;;4990280;28;20528;-63
2021/08/30 08:50:21;;;;;;;8.93;7.85;;;25.60;74.00;;;;;;4988314;28;20113;-63
2021/08/30 08:52:47;;;;;;;12.15;7.72;;;25.60;74.00;;;;;;4992891;28;20042;-62
2021/08/30 08:55:15;;;;;;;8.50;7.45;;;25.60;74.00;;;;;;4990497;28;20033;-63
2021/08/30 08:57:43;;;;;;;12.35;8.07;;;25.60;73.70;;;;;;4977524;28;20842;-63
2021/08/30 09:00:12;;;;;;;10.82;7.70;;;25.60;73.40;;;;;;4987448;28;20421;-64
2021/08/30 09:02:38;;;;;;;9.63;7.20;;;25.60;73.40;;;;;;5007136;28;20034;-64
2021/08/30 09:05:06;;;;;;;10.57;8.05;;;25.70;73.20;;;;;;4995201;28;20117;-64
2021/08/30 09:07:43;;;;;;;9.88;7.50;;;25.70;73.10;;;;;;4994653;28;20520;-64
2021/08/30 09:10:16;;;;;;;13.70;8.50;;;25.70;72.80;;;;;;4986947;28;20033;-64
2021/08/30 09:12:43;;;;;;;9.02;7.93;;;25.70;72.40;;;;;;4991453;28;20042;-64
2021/08/30 09:15:17;;;;;;;10.23;7.82;;;25.70;72.60;;;;;;4994336;28;20121;-64
2021/08/30 09:17:50;;;;;;;9.75;7.47;;;25.70;71.70;;;;;;4971589;28;20057;-63
2021/08/30 09:20:18;;;;;;;10.77;7.43;;;25.70;71.50;;;;;;4994254;28;20050;-64
2021/08/30 09:22:44;;;;;;;9.10;7.45;;;25.70;71.20;;;;;;4992181;28;20048;-64
2021/08/30 09:25:11;;;;;;;11.43;7.93;;;25.80;71.30;;;;;;4988232;28;20474;-64
2021/08/30 09:27:39;;;;;;;10.73;6.68;;;25.80;71.50;;;;;;4997391;28;20030;-65
2021/08/30 09:30:11;;;;;;;10.80;7.18;;;25.90;71.20;;;;;;4989968;28;20462;-64
2021/08/30 09:32:37;;;;;;;8.73;7.13;;;26.00;71.10;;;;;;4993504;28;20050;-64
2021/08/30 09:35:04;;;;;;;10.38;7.05;;;26.00;71.10;;;;;;4996611;28;20037;-64
2021/08/30 09:37:36;;;;;;;9.88;7.50;;;26.10;70.80;;;;;;4996780;28;22912;-65
2021/08/30 09:40:05;;;;;;;9.68;6.72;;;26.10;70.80;;;;;;4990746;28;20075;-65
2021/08/30 09:42:32;;;;;;;11.32;8.25;;;26.10;70.40;;;;;;4997970;28;20096;-64
2021/08/30 09:45:12;;;;;;;8.73;7.10;;;26.10;70.30;;;;;;4997241;28;20038;-64
2021/08/30 09:47:57;;;;;;;;;;;26.20;70.50;;;;;;4992934;28;20062;-64
2021/08/30 09:50:32;;;;;;;9.32;6.63;;;26.10;70.80;;;;;;4996349;28;19913;-63
2021/08/30 09:52:59;;;;;;;11.20;7.25;;;26.10;71.00;;;;;;5001402;28;20116;-64
2021/08/30 09:55:26;;;;;;;10.70;7.05;;;26.20;70.90;;;;;;4998812;28;20085;-63
2021/08/30 09:57:54;;;;;;;9.18;7.28;;;26.20;70.90;;;;;;4994957;28;20441;-63
2021/08/30 10:00:21;;;;;;;10.57;6.78;;;26.30;70.60;;;;;;5000630;28;20068;-63
2021/08/30 10:02:53;;;;;;;10.73;7.68;;;26.30;70.40;;;;;;4991990;28;20042;-63
2021/08/30 10:05:20;;;;;;;10.15;7.10;;;26.30;69.90;;;;;;4993879;28;20049;-63
2021/08/30 10:07:46;;;;;;;10.80;7.00;;;26.30;69.50;;;;;;4998002;28;21703;-64
2021/08/30 10:10:14;;;;;;;9.18;6.38;;;26.30;69.50;;;;;;4995017;28;20105;-64
2021/08/30 10:12:41;;;;;;;12.15;6.95;;;26.30;69.30;;;;;;4999985;28;20046;-64
2021/08/30 10:15:09;;;;;;;10.32;6.72;;;26.30;69.50;;;;;;4999249;28;20072;-64
2021/08/30 10:17:43;;;;;;;10.77;7.00;;;26.20;69.20;;;;;;5003709;28;20054;-64
2021/08/30 10:20:15;;;;;;;10.50;6.90;;;26.30;69.60;;;;;;5002088;28;20029;-64
2021/08/30 10:22:41;;;;;;;10.32;6.78;;;26.20;69.00;;;;;;5006105;28;20413;-64
2021/08/30 10:25:16;;;;;;;9.27;6.53;;;26.30;69.00;;;;;;5002631;28;20030;-64
2021/08/30 10:27:54;;;;;;;8.38;6.57;;;26.30;69.00;;;;;;4998915;28;20041;-64
2021/08/30 10:30:19;;;;;;;8.68;6.57;;;26.30;68.90;;;;;;5002318;28;20026;-64
2021/08/30 10:32:45;;;;;;;12.38;6.93;;;26.30;68.80;;;;;;4981369;28;20092;-64
2021/08/30 10:35:20;;;;;;;10.77;7.05;;;26.30;68.90;;;;;;4976400;28;20034;-64
2021/08/30 10:38:07;;;;;;;9.18;6.70;;;26.30;69.00;;;;;;4983978;28;20046;-64
2021/08/30 10:40:37;;;;;;;8.70;6.13;;;26.30;69.30;;;;;;4977309;28;20390;-64
2021/08/30 10:43:10;;;;;;;9.88;7.15;;;26.30;69.30;;;;;;4977097;28;20104;-64
2021/08/30 10:45:58;;;;;;;8.73;6.55;;;26.30;68.80;;;;;;4979323;28;20031;-65
2021/08/30 10:48:35;;;;;;;12.95;7.13;;;26.30;68.60;;;;;;4980092;28;20245;-64
2021/08/30 10:51:12;;;;;;;12.68;6.88;;;26.30;68.60;;;;;;4978456;28;20034;-64
2021/08/30 10:53:38;;;;;;;9.15;7.38;;;26.30;68.60;;;;;;4978645;28;20030;-64
2021/08/30 10:56:09;;;;;;;9.23;7.00;;;26.30;68.70;;;;;;4970411;28;20030;-64
2021/08/30 10:58:35;;;;;;;9.75;6.45;;;26.30;68.70;;;;;;4976426;28;20034;-64
2021/08/30 11:01:12;;;;;;;9.00;6.65;;;26.30;68.90;;;;;;4977912;28;20030;-64
2021/08/30 11:03:39;;;;;;;10.52;7.10;;;26.30;68.90;;;;;;4967100;28;20133;-62
2021/08/30 11:06:10;;;;;;;8.50;6.68;;;26.40;69.00;;;;;;4977052;28;20034;-62
2021/08/30 11:08:40;;;;;;;10.27;6.93;;;26.30;68.80;;;;;;4971322;28;21072;-64
2021/08/30 11:11:21;;;;;;;9.73;6.30;;;26.30;68.90;;;;;;4973842;28;20764;-64
2021/08/30 11:14:08;;;;;;;11.02;6.78;;;26.40;68.70;;;;;;4974376;28;20046;-65
2021/08/30 11:16:35;;;;;;;10.60;6.88;;;26.40;68.90;;;;;;4975057;28;20112;-65
2021/08/30 11:19:04;;;;;;;9.95;6.53;;;26.40;69.00;;;;;;4975025;28;21021;-64
2021/08/30 11:21:30;;;;;;;9.48;6.00;;;26.40;69.00;;;;;;4977941;28;20035;-64
2021/08/30 11:23:56;;;;;;;7.75;6.38;;;26.50;69.20;;;;;;4985560;28;20355;-64
2021/08/30 11:26:22;;;;;;;10.10;6.47;;;26.50;69.10;;;;;;4984306;28;20038;-64
2021/08/30 11:29:01;;;;;;;11.57;6.78;;;26.60;69.00;;;;;;4974689;28;20042;-62
2021/08/30 11:31:29;;;;;;;8.18;6.18;;;26.60;69.20;;;;;;4980933;28;20089;-65
2021/08/30 11:33:55;;;;;;;9.60;6.75;;;26.60;69.00;;;;;;4995673;28;20049;-65
2021/08/30 11:36:21;;;;;;;8.48;6.43;;;26.70;69.20;;;;;;5000152;28;20039;-65
2021/08/30 11:38:58;;;;;;;9.70;6.40;;;26.70;69.00;;;;;;4997493;28;20083;-64
2021/08/30 11:41:24;;;;;;;12.25;7.07;;;26.70;68.90;;;;;;4995177;28;20124;-64
2021/08/30 11:44:02;;;;;;;8.52;6.05;;;26.80;69.20;;;;;;4996309;28;20044;-64
2021/08/30 11:46:28;;;;;;;10.13;7.15;;;26.80;68.90;;;;;;4993376;28;20040;-64
2021/08/30 11:48:58;;;;;;;8.52;6.50;;;26.80;69.20;;;;;;5001229;28;20254;-63
2021/08/30 11:51:26;;;;;;;8.60;7.47;;;26.70;68.80;;;;;;4996660;28;20073;-64
2021/08/30 11:53:53;;;;;;;9.73;8.27;;;26.70;69.10;;;;;;4991598;28;20585;-64
2021/08/30 11:56:22;;;;;;;11.20;7.60;;;26.80;69.00;;;;;;4993709;28;20366;-65
2021/08/30 11:58:47;;;;;;;12.93;6.65;;;26.80;68.90;;;;;;4986752;28;20133;-65
2021/08/30 12:01:18;;;;;;;12.32;7.25;;;26.90;68.90;;;;;;4988631;28;20034;-64
2021/08/30 12:03:44;;;;;;;10.30;6.45;;;26.90;68.50;;;;;;4994134;28;20029;-64
2021/08/30 12:06:18;;;;;;;9.98;6.40;;;26.90;68.70;;;;;;4999023;28;20040;-64
2021/08/30 12:08:55;;;;;;;9.95;6.22;;;27.00;68.40;;;;;;4995003;28;20121;-65
2021/08/30 12:11:20;;;;;;;8.07;5.97;;;27.10;68.30;;;;;;4996541;28;20057;-66
2021/08/30 12:16:26;;;;;;;12.82;7.68;;;27.20;68.10;;;;;;4986606;28;21907;-63
2021/08/30 12:18:55;;;;;;;8.82;7.13;;;27.30;68.00;;;;;;4992034;28;20393;-64
2021/08/30 12:21:36;;;;;;;10.27;7.22;;;27.30;67.50;;;;;;4985524;28;20105;-64
2021/08/30 12:24:21;;;;;;;8.18;6.28;;;27.40;67.40;;;;;;4986672;28;20208;-64
2021/08/30 12:26:48;;;;;;;10.18;6.30;;;27.40;67.20;;;;;;5001363;28;20060;-62
2021/08/30 12:29:17;;;;;;;8.80;6.53;;;27.40;66.80;;;;;;4996989;28;20072;-63
2021/08/30 12:31:49;;;;;;;9.93;6.43;;;27.40;66.90;;;;;;4994076;28;20045;-62
2021/08/30 12:34:17;;;;;;;10.43;6.40;;;27.40;67.00;;;;;;4987305;28;20034;-62
2021/08/30 12:36:45;;;;;;;7.70;5.93;;;27.40;66.80;;;;;;4988364;28;20040;-62
2021/08/30 12:39:11;;;;;;;7.10;6.15;;;27.40;66.90;;;;;;4994264;28;20030;-62
2021/08/30 12:41:36;;;;;;;8.57;6.03;;;27.40;67.20;;;;;;4997684;28;20038;-62
2021/08/30 12:44:02;;;;;;;9.30;7.25;;;27.50;67.00;;;;;;4995850;28;20071;-64
2021/08/30 12:46:28;;;;;;;9.98;6.57;;;27.50;66.90;;;;;;4994465;28;20026;-63